Time;durP1;ratioP1;P1;durP2;ratioP2;P2;SDS_P1;SDS_P2;PMS_P1;PMS_P2;Temp;Humidity;BMP_temperature;BMP_pressure;BME280_temperature;BME280_humidity;BME280_pressure;Samples;Min_cycle;Max_cycle;Signal;HPM_P1;HPM_P2
2023/01/29 00:02:23;;;;;;;;;;;3.80;99.90;;;;;;5013793;28;1146;-63
2023/01/29 00:04:49;;;;;;;;;;;3.90;99.90;;;;;;5044477;28;1971;-63
2023/01/29 00:07:14;;;;;;;;;;;3.40;99.90;;;;;;5039425;28;1631;-63
2023/01/29 00:09:40;;;;;;;;;;;3.50;99.90;;;;;;5030965;28;1260;-63
2023/01/29 00:12:07;;;;;;;;;;;3.40;99.90;;;;;;5031336;28;1135;-63
2023/01/29 00:14:33;;;;;;;;;;;3.40;99.90;;;;;;5031157;28;1464;-63
2023/01/29 00:16:59;;;;;;;;;;;3.40;99.90;;;;;;5031346;28;1165;-63
2023/01/29 00:19:25;;;;;;;;;;;3.70;99.90;;;;;;5030630;28;983;-63
2023/01/29 00:21:51;;;;;;;;;;;3.80;99.90;;;;;;5030934;28;1139;-63
2023/01/29 00:24:16;;;;;;;;;;;3.40;99.90;;;;;;5030752;28;1976;-63
2023/01/29 00:26:42;;;;;;;;;;;3.60;99.90;;;;;;5030676;28;1000;-63
2023/01/29 00:29:08;;;;;;;;;;;3.40;99.90;;;;;;5030907;28;1118;-63
2023/01/29 00:31:34;;;;;;;;;;;3.70;99.90;;;;;;5012902;28;1106;-63
2023/01/29 00:33:59;;;;;;;;;;;3.40;99.90;;;;;;5012616;28;1170;-63
2023/01/29 00:36:25;;;;;;;;;;;3.70;99.90;;;;;;5031131;28;1110;-63
2023/01/29 00:38:57;;;;;;;;;;;3.60;99.90;;;;;;5030237;28;1083;-63
2023/01/29 00:46:53;;;;;;;;;;;3.50;99.90;;;;;;5029261;28;1163;-63
2023/01/29 00:49:19;;;;;;;;;;;3.60;99.90;;;;;;5013152;28;1087;-63
2023/01/29 00:52:22;;;;;;;;;;;3.70;99.90;;;;;;5029527;28;1423;-63
2023/01/29 00:54:30;;;;;;;;;;;3.40;99.90;;;;;;5031533;28;1510;-63
2023/01/29 00:56:56;;;;;;;;;;;3.70;99.90;;;;;;5016340;28;1305;-63
2023/01/29 00:59:22;;;;;;;;;;;3.70;99.90;;;;;;5030696;28;1157;-63
2023/01/29 01:04:32;;;;;;;;;;;3.40;99.90;;;;;;4995971;28;1914;-63
2023/01/29 01:06:57;;;;;;;;;;;3.80;99.90;;;;;;5040194;28;1369;-63
2023/01/29 01:12:07;;;;;;;;;;;3.70;99.90;;;;;;5038804;28;1156;-63
2023/01/29 01:14:35;;;;;;;;;;;3.60;99.90;;;;;;5032004;28;1155;-63
2023/01/29 01:17:00;;;;;;;;;;;4.00;99.90;;;;;;5012118;28;1165;-63
2023/01/29 01:19:26;;;;;;;;;;;4.00;99.90;;;;;;5030392;28;1110;-63
2023/01/29 01:21:52;;;;;;;;;;;3.90;99.90;;;;;;5029476;28;1169;-63
2023/01/29 01:24:19;;;;;;;;;;;3.90;99.90;;;;;;5012735;28;1906;-63
2023/01/29 01:26:44;;;;;;;;;;;3.70;99.90;;;;;;5030045;28;1114;-63
2023/01/29 01:29:11;;;;;;;;;;;3.80;99.90;;;;;;5029363;28;1114;-63
2023/01/29 01:31:37;;;;;;;;;;;3.80;99.90;;;;;;5029264;28;1118;-63
2023/01/29 01:34:02;;;;;;;;;;;3.80;99.90;;;;;;5012081;28;1153;-63
2023/01/29 01:36:28;;;;;;;;;;;4.20;99.90;;;;;;5011411;28;1122;-63
2023/01/29 01:38:54;;;;;;;;;;;4.20;99.90;;;;;;5029610;28;1091;-63
2023/01/29 01:41:20;;;;;;;;;;;4.30;99.90;;;;;;5011824;28;1113;-63
2023/01/29 01:43:48;;;;;;;;;;;4.00;99.90;;;;;;5028999;28;1914;-63
2023/01/29 01:46:15;;;;;;;;;;;3.90;99.90;;;;;;5029626;28;1118;-63
2023/01/29 01:48:41;;;;;;;;;;;4.20;99.90;;;;;;5029424;28;1017;-63
2023/01/29 01:51:07;;;;;;;;;;;4.10;99.90;;;;;;5028897;28;1385;-63
2023/01/29 01:53:37;;;;;;;;;;;4.10;99.90;;;;;;5029444;28;1106;-63
2023/01/29 01:56:05;;;;;;;;;;;4.20;99.90;;;;;;5029743;28;1400;-63
2023/01/29 01:58:33;;;;;;;;;;;4.10;99.90;;;;;;5010614;28;1205;-63
2023/01/29 02:00:59;;;;;;;;;;;4.10;99.90;;;;;;5027833;28;1174;-63
2023/01/29 02:11:42;;;;;;;;;;;4.10;99.90;;;;;;5033640;28;1016;-63
2023/01/29 02:14:08;;;;;;;;;;;3.90;99.90;;;;;;5031022;28;1295;-63
2023/01/29 02:16:34;;;;;;;;;;;3.80;99.90;;;;;;5037369;28;1113;-63
2023/01/29 02:19:03;;;;;;;;;;;4.00;99.90;;;;;;5028670;28;991;-63
2023/01/29 02:21:37;;;;;;;;;;;3.90;99.90;;;;;;5011610;28;1170;-63
2023/01/29 02:24:03;;;;;;;;;;;3.90;99.90;;;;;;5028619;28;1906;-63
2023/01/29 02:26:39;;;;;;;;;;;4.30;99.90;;;;;;5027953;28;1313;-63
2023/01/29 02:29:22;;;;;;;;;;;3.80;99.90;;;;;;5010520;28;1095;-63
2023/01/29 02:31:56;;;;;;;;;;;3.90;99.90;;;;;;5028515;28;1094;-63
2023/01/29 02:34:29;;;;;;;;;;;3.80;99.90;;;;;;5010796;28;1115;-63
2023/01/29 02:37:00;;;;;;;;;;;3.90;99.90;;;;;;5028845;28;1165;-63
2023/01/29 02:39:35;;;;;;;;;;;3.80;99.90;;;;;;4994561;28;1198;-63
2023/01/29 02:42:10;;;;;;;;;;;3.80;99.90;;;;;;5010840;28;1149;-63
2023/01/29 02:44:41;;;;;;;;;;;3.90;99.90;;;;;;5028955;28;1955;-63
2023/01/29 02:47:12;;;;;;;;;;;3.70;99.90;;;;;;5028342;28;1138;-63
2023/01/29 02:49:45;;;;;;;;;;;3.70;99.90;;;;;;5011646;28;1131;-63
2023/01/29 02:52:18;;;;;;;;;;;3.70;99.90;;;;;;5010432;28;1361;-63
2023/01/29 02:54:45;;;;;;;;;;;3.70;99.90;;;;;;5028159;28;1119;-63
2023/01/29 02:57:13;;;;;;;;;;;4.00;99.90;;;;;;5028947;28;1262;-63
2023/01/29 02:59:43;;;;;;;;;;;3.60;99.90;;;;;;5010574;28;1231;-63
2023/01/29 03:02:11;;;;;;;;;;;3.60;99.90;;;;;;5010429;28;1114;-63
2023/01/29 03:04:42;;;;;;;;;;;3.50;99.90;;;;;;5010969;28;1910;-63
2023/01/29 03:07:39;;;;;;;;;;;4.10;99.90;;;;;;5013592;28;1588;-63
2023/01/29 03:09:59;;;;;;;;;;;3.40;99.90;;;;;;5010343;28;1597;-63
2023/01/29 03:12:32;;;;;;;;;;;3.50;99.90;;;;;;5010870;28;1097;-63
2023/01/29 03:15:13;;;;;;;;;;;3.40;99.90;;;;;;4994933;28;1347;-63
2023/01/29 03:17:46;;;;;;;;;;;3.40;99.90;;;;;;4990970;28;1099;-63
2023/01/29 03:20:15;;;;;;;;;;;3.30;99.90;;;;;;5008799;28;1111;-63
2023/01/29 03:22:42;;;;;;;;;;;3.60;99.90;;;;;;4997109;28;1310;-62
2023/01/29 03:33:49;;;;;;;;;;;3.30;99.90;;;;;;5014067;28;1221;-62
2023/01/29 03:36:25;;;;;;;;;;;3.40;99.90;;;;;;5005526;28;1289;-62
2023/01/29 03:38:51;;;;;;;;;;;3.20;99.90;;;;;;5000148;28;1327;-62
2023/01/29 03:41:18;;;;;;;;;;;3.30;99.90;;;;;;4985876;28;1305;-62
2023/01/29 03:44:11;;;;;;;;;;;3.40;99.90;;;;;;5017404;28;1981;-62
2023/01/29 03:46:43;;;;;;;;;;;3.40;99.90;;;;;;4999949;28;2114;-62
2023/01/29 03:49:15;;;;;;;;;;;3.40;99.90;;;;;;5001761;28;1170;-62
2023/01/29 03:51:46;;;;;;;;;;;3.50;99.90;;;;;;5002888;28;1323;-62
2023/01/29 03:54:12;;;;;;;;;;;3.80;99.90;;;;;;4999813;28;1253;-62
2023/01/29 03:56:45;;;;;;;;;;;3.60;99.90;;;;;;5014769;28;1293;-62
2023/01/29 03:59:20;;;;;;;;;;;3.70;99.90;;;;;;5015881;28;1194;-62
2023/01/29 04:02:09;;;;;;;;;;;3.50;99.90;;;;;;5015622;28;1210;-62
2023/01/29 04:04:36;;;;;;;;;;;3.40;99.90;;;;;;4997694;28;1888;-62
2023/01/29 04:07:09;;;;;;;;;;;3.50;99.90;;;;;;4997933;28;1276;-62
2023/01/29 04:09:39;;;;;;;;;;;3.70;99.90;;;;;;5010294;28;1112;-62
2023/01/29 04:12:09;;;;;;;;;;;3.90;99.90;;;;;;4988802;28;1145;-62
2023/01/29 04:14:38;;;;;;;;;;;3.60;99.90;;;;;;4989357;28;1226;-62
2023/01/29 04:17:08;;;;;;;;;;;3.70;99.90;;;;;;5013810;28;1083;-62
2023/01/29 04:19:52;;;;;;;;;;;3.70;99.90;;;;;;5031038;28;1133;-62
2023/01/29 04:22:21;;;;;;;;;;;4.10;99.90;;;;;;5031007;28;1109;-62
2023/01/29 04:24:49;;;;;;;;;;;3.90;99.90;;;;;;5012427;28;2013;-62
2023/01/29 04:27:19;;;;;;;;;;;4.10;99.90;;;;;;5026008;28;1137;-62
2023/01/29 04:30:05;;;;;;;;;;;4.10;99.90;;;;;;5017291;28;1189;-62
2023/01/29 04:32:52;;;;;;;;;;;4.00;99.90;;;;;;5012655;28;1095;-62
2023/01/29 04:35:25;;;;;;;;;;;3.80;99.90;;;;;;5013351;28;1201;-62
2023/01/29 04:37:53;;;;;;;;;;;3.70;99.90;;;;;;5012602;28;1060;-62
2023/01/29 04:40:22;;;;;;;;;;;3.90;99.90;;;;;;5030504;28;1161;-62
2023/01/29 04:42:48;;;;;;;;;;;4.00;99.90;;;;;;5030680;28;1177;-62
2023/01/29 04:45:18;;;;;;;;;;;3.80;99.90;;;;;;5030987;28;1999;-62
2023/01/29 04:48:08;;;;;;;;;;;3.80;99.90;;;;;;5038546;28;1198;-63
2023/01/29 04:50:36;;;;;;;;;;;4.00;99.90;;;;;;5027416;28;1117;-63
2023/01/29 04:53:05;;;;;;;;;;;3.80;99.90;;;;;;5029728;28;1646;-62
2023/01/29 04:55:38;;;;;;;;;;;3.70;99.90;;;;;;5030282;28;1266;-62
2023/01/29 04:58:11;;;;;;;;;;;3.80;99.90;;;;;;5012505;28;1098;-62
2023/01/29 05:00:39;;;;;;;;;;;3.80;99.90;;;;;;5011944;28;1012;-62
2023/01/29 05:03:08;;;;;;;;;;;3.60;99.90;;;;;;5012431;28;1997;-62
2023/01/29 05:05:35;;;;;;;;;;;3.70;99.90;;;;;;5011904;28;1160;-62
2023/01/29 05:08:01;;;;;;;;;;;3.50;99.90;;;;;;5029657;28;1576;-62
2023/01/29 05:10:28;;;;;;;;;;;3.60;99.90;;;;;;5030362;28;1122;-63
2023/01/29 05:12:59;;;;;;;;;;;3.80;99.90;;;;;;5037942;28;1081;-62
2023/01/29 05:15:29;;;;;;;;;;;3.40;99.90;;;;;;5029108;28;1134;-62
2023/01/29 05:18:00;;;;;;;;;;;3.30;99.90;;;;;;5030402;28;1083;-62
2023/01/29 05:20:26;;;;;;;;;;;3.50;99.90;;;;;;5011660;28;1107;-62
2023/01/29 05:22:52;;;;;;;;;;;3.40;99.90;;;;;;5032985;28;1110;-62
2023/01/29 05:25:20;;;;;;;;;;;3.40;99.90;;;;;;5016184;28;1914;-63
2023/01/29 05:28:04;;;;;;;;;;;3.50;99.90;;;;;;5046274;28;1101;-62
2023/01/29 05:30:31;;;;;;;;;;;3.70;99.90;;;;;;5044328;28;1070;-63
2023/01/29 05:32:57;;;;;;;;;;;3.40;99.90;;;;;;5049617;28;1300;-63
2023/01/29 05:35:22;;;;;;;;;;;3.50;99.90;;;;;;5048894;28;1168;-62
2023/01/29 05:37:48;;;;;;;;;;;3.30;99.90;;;;;;5049913;28;1141;-63
2023/01/29 05:40:29;;;;;;;;;;;3.40;99.90;;;;;;5035652;28;1115;-63
2023/01/29 05:42:55;;;;;;;;;;;3.30;99.90;;;;;;5048814;28;1113;-63
2023/01/29 05:45:20;;;;;;;;;;;3.30;99.90;;;;;;5049857;28;1922;-63
2023/01/29 05:47:46;;;;;;;;;;;3.30;99.90;;;;;;5047445;28;1129;-63
2023/01/29 05:50:13;;;;;;;;;;;3.70;99.90;;;;;;5028545;28;1177;-62
2023/01/29 05:52:39;;;;;;;;;;;3.60;99.90;;;;;;5029505;28;1638;-63
2023/01/29 05:55:05;;;;;;;;;;;3.40;99.90;;;;;;5029645;28;1266;-63
2023/01/29 05:57:31;;;;;;;;;;;3.30;99.90;;;;;;5028183;28;1067;-63
2023/01/29 05:59:56;;;;;;;;;;;3.30;99.90;;;;;;5029383;28;1325;-63
2023/01/29 06:02:22;;;;;;;;;;;3.30;99.90;;;;;;5029089;28;1106;-63
2023/01/29 06:04:49;;;;;;;;;;;3.80;99.90;;;;;;5029425;28;1971;-62
2023/01/29 06:07:15;;;;;;;;;;;3.30;99.90;;;;;;5001495;28;1382;-62
2023/01/29 06:09:40;;;;;;;;;;;3.30;99.90;;;;;;5028553;28;1130;-63
2023/01/29 06:12:06;;;;;;;;;;;3.90;99.90;;;;;;5028968;28;1115;-62
2023/01/29 06:14:32;;;;;;;;;;;3.40;99.90;;;;;;5010806;28;1445;-62
2023/01/29 06:16:58;;;;;;;;;;;3.40;99.90;;;;;;5028548;28;1030;-62
2023/01/29 06:19:23;;;;;;;;;;;3.40;99.90;;;;;;5028804;28;1134;-62
2023/01/29 06:21:49;;;;;;;;;;;3.30;99.90;;;;;;5029300;28;1157;-62
2023/01/29 06:24:15;;;;;;;;;;;3.70;99.90;;;;;;5027709;28;1910;-62
2023/01/29 06:26:40;;;;;;;;;;;3.60;99.90;;;;;;5028860;28;1113;-63
2023/01/29 06:29:06;;;;;;;;;;;3.60;99.90;;;;;;5029121;28;1110;-63
2023/01/29 06:31:32;;;;;;;;;;;3.40;99.90;;;;;;5028365;28;1086;-62
2023/01/29 06:33:57;;;;;;;;;;;3.50;99.90;;;;;;5010578;28;1179;-62
2023/01/29 06:36:23;;;;;;;;;;;3.60;99.90;;;;;;5011303;28;1118;-63
2023/01/29 06:38:48;;;;;;;;;;;3.50;99.90;;;;;;5028576;28;1102;-62
2023/01/29 06:41:16;;;;;;;;;;;3.60;99.90;;;;;;5028550;28;1134;-62
2023/01/29 06:43:43;;;;;;;;;;;3.30;99.90;;;;;;5028960;28;1976;-62
2023/01/29 06:46:08;;;;;;;;;;;3.50;99.90;;;;;;5028490;28;1200;-62
2023/01/29 06:48:34;;;;;;;;;;;3.80;99.90;;;;;;5028459;28;1100;-63
2023/01/29 06:51:00;;;;;;;;;;;3.50;99.90;;;;;;5028349;28;1345;-63
2023/01/29 06:53:26;;;;;;;;;;;3.50;99.90;;;;;;5010443;28;1094;-63
2023/01/29 06:55:52;;;;;;;;;;;3.70;99.90;;;;;;5028513;28;1265;-63
2023/01/29 06:58:18;;;;;;;;;;;4.10;99.90;;;;;;5028812;28;1135;-63
2023/01/29 07:00:44;;;;;;;;;;;3.70;99.90;;;;;;5027698;28;1056;-63
2023/01/29 07:03:10;;;;;;;;;;;3.70;99.90;;;;;;5028355;28;1973;-63
2023/01/29 07:05:36;;;;;;;;;;;3.60;99.90;;;;;;5028730;28;1082;-62
2023/01/29 07:08:02;;;;;;;;;;;4.00;99.90;;;;;;5027698;28;1600;-63
2023/01/29 07:10:27;;;;;;;;;;;3.90;99.90;;;;;;5010695;28;1166;-62
2023/01/29 07:12:53;;;;;;;;;;;3.70;99.90;;;;;;5043623;28;1180;-63
2023/01/29 07:15:20;;;;;;;;;;;3.80;99.90;;;;;;5032137;28;1148;-63
2023/01/29 07:17:57;;;;;;;;;;;3.80;99.90;;;;;;5019416;28;1118;-63
2023/01/29 07:20:23;;;;;;;;;;;3.80;99.90;;;;;;5013864;28;1130;-63
2023/01/29 07:22:49;;;;;;;;;;;3.70;99.90;;;;;;5031138;28;1102;-63
2023/01/29 07:25:15;;;;;;;;;;;3.80;99.90;;;;;;5033091;28;1983;-63
2023/01/29 07:27:40;;;;;;;;;;;3.90;99.90;;;;;;5031548;28;1184;-63
2023/01/29 07:30:06;;;;;;;;;;;4.10;99.90;;;;;;5032477;28;1142;-63
2023/01/29 07:32:32;;;;;;;;;;;3.90;99.90;;;;;;5031968;28;1118;-63
2023/01/29 07:34:58;;;;;;;;;;;3.90;99.90;;;;;;5031164;28;992;-63
2023/01/29 07:37:23;;;;;;;;;;;4.00;99.90;;;;;;5032253;28;1184;-63
2023/01/29 07:39:49;;;;;;;;;;;3.80;99.90;;;;;;5014381;28;1020;-63
2023/01/29 07:42:15;;;;;;;;;;;3.80;99.90;;;;;;5031303;28;1130;-63
2023/01/29 07:44:40;;;;;;;;;;;3.90;99.90;;;;;;5013692;28;1942;-63
2023/01/29 07:47:06;;;;;;;;;;;3.90;99.90;;;;;;5031820;28;1125;-63
2023/01/29 07:49:31;;;;;;;;;;;3.70;99.90;;;;;;5031026;28;1121;-62
2023/01/29 07:51:57;;;;;;;;;;;3.70;99.90;;;;;;5033792;28;1155;-63
2023/01/29 07:54:23;;;;;;;;;;;3.80;99.90;;;;;;5051855;28;1141;-63
2023/01/29 07:56:48;;;;;;;;;;;3.70;99.90;;;;;;5035177;28;1324;-63
2023/01/29 07:59:14;;;;;;;;;;;3.70;99.90;;;;;;5031662;28;1184;-63
2023/01/29 08:01:40;;;;;;;;;;;3.60;99.90;;;;;;5031029;28;1156;-63
2023/01/29 08:04:05;;;;;;;;;;;3.70;99.90;;;;;;5030446;28;1906;-63
2023/01/29 08:06:31;;;;;;;;;;;3.90;99.90;;;;;;5031674;28;1312;-63
2023/01/29 08:08:58;;;;;;;;;;;4.00;99.90;;;;;;5031375;28;972;-63
2023/01/29 08:11:24;;;;;;;;;;;4.00;99.90;;;;;;5033174;28;1200;-63
2023/01/29 08:13:50;;;;;;;;;;;4.00;99.90;;;;;;5035170;28;1276;-63
2023/01/29 08:16:16;;;;;;;;;;;4.00;99.90;;;;;;5042257;28;1224;-63
2023/01/29 08:18:45;;;;;;;;;;;3.80;99.90;;;;;;5030635;28;1169;-63
2023/01/29 08:21:10;;;;;;;;;;;3.90;99.90;;;;;;5031273;28;1196;-63
2023/01/29 08:23:36;;;;;;;;;;;3.90;99.90;;;;;;5030573;28;1918;-63
2023/01/29 08:26:02;;;;;;;;;;;4.00;99.90;;;;;;5029988;28;1385;-63
2023/01/29 08:28:27;;;;;;;;;;;4.10;99.90;;;;;;5030969;28;1191;-63
2023/01/29 08:30:53;;;;;;;;;;;4.00;99.90;;;;;;5030297;28;1129;-63
2023/01/29 08:33:19;;;;;;;;;;;4.10;99.90;;;;;;5036450;28;1037;-63
2023/01/29 08:35:51;;;;;;;;;;;3.90;99.90;;;;;;5039979;28;1212;-63
2023/01/29 08:38:16;;;;;;;;;;;4.20;99.90;;;;;;5038286;28;1288;-63
2023/01/29 08:40:42;;;;;;;;;;;4.00;99.90;;;;;;5020835;28;1196;-63
2023/01/29 08:43:10;;;;;;;;;;;3.90;99.90;;;;;;5036041;28;1910;-63
2023/01/29 08:45:36;;;;;;;;;;;4.10;99.90;;;;;;5029760;28;1118;-63
2023/01/29 08:48:02;;;;;;;;;;;4.00;99.90;;;;;;5030648;28;1089;-63
2023/01/29 08:50:29;;;;;;;;;;;3.90;99.90;;;;;;5030919;28;1086;-63
2023/01/29 08:52:57;;;;;;;;;;;4.20;99.90;;;;;;5029964;28;1304;-63
2023/01/29 08:55:23;;;;;;;;;;;3.90;99.90;;;;;;5029960;28;1298;-63
2023/01/29 08:57:49;;;;;;;;;;;4.20;99.90;;;;;;5013129;28;1102;-63
2023/01/29 09:00:15;;;;;;;;;;;3.90;99.90;;;;;;5029560;28;1026;-63
2023/01/29 09:02:40;;;;;;;;;;;3.90;99.90;;;;;;5029761;28;1102;-63
2023/01/29 09:05:06;;;;;;;;;;;3.90;99.90;;;;;;5030677;28;1975;-63
2023/01/29 09:07:32;;;;;;;;;;;3.90;99.90;;;;;;5029707;28;1679;-63
2023/01/29 09:09:58;;;;;;;;;;;3.90;99.90;;;;;;5036140;28;1094;-63
2023/01/29 09:12:24;;;;;;;;;;;3.80;99.90;;;;;;5030118;28;1148;-63
2023/01/29 09:14:50;;;;;;;;;;;3.80;99.90;;;;;;5029343;28;1124;-63
2023/01/29 09:17:15;;;;;;;;;;;3.80;99.90;;;;;;5030611;28;1232;-63
2023/01/29 09:19:41;;;;;;;;;;;3.80;99.90;;;;;;5029532;28;1125;-63
2023/01/29 09:22:06;;;;;;;;;;;3.70;99.90;;;;;;5040719;28;1198;-63
2023/01/29 09:24:33;;;;;;;;;;;3.80;99.90;;;;;;5035451;28;1910;-63
2023/01/29 09:27:00;;;;;;;;;;;4.00;99.90;;;;;;5029685;28;1125;-63
2023/01/29 09:29:25;;;;;;;;;;;3.80;99.90;;;;;;5029342;28;1178;-63
2023/01/29 09:31:51;;;;;;;;;;;3.80;99.90;;;;;;5029965;28;1098;-63
2023/01/29 09:34:17;;;;;;;;;;;4.00;99.90;;;;;;5011717;28;1106;-63
2023/01/29 09:36:42;;;;;;;;;;;4.30;99.90;;;;;;5012343;28;1091;-63
2023/01/29 09:39:08;;;;;;;;;;;4.10;99.90;;;;;;5028986;28;1176;-63
2023/01/29 09:41:37;;;;;;;;;;;4.10;99.90;;;;;;5029143;28;1114;-63
2023/01/29 09:44:09;;;;;;;;;;;4.10;99.90;;;;;;5029297;28;1903;-63
2023/01/29 09:46:38;;;;;;;;;;;4.10;99.90;;;;;;5011391;28;1083;-63
2023/01/29 09:49:07;;;;;;;;;;;4.00;99.90;;;;;;5029181;28;1152;-63
2023/01/29 09:51:37;;;;;;;;;;;3.90;99.90;;;;;;5029304;28;1258;-63
2023/01/29 09:54:04;;;;;;;;;;;4.00;99.90;;;;;;5029154;28;1273;-63
2023/01/29 09:56:29;;;;;;;;;;;3.90;99.90;;;;;;5028011;28;1237;-63
2023/01/29 09:58:58;;;;;;;;;;;3.90;99.90;;;;;;5029672;28;1042;-63
2023/01/29 10:01:32;;;;;;;;;;;3.90;99.90;;;;;;5028838;28;1094;-63
2023/01/29 10:04:17;;;;;;;;;;;4.00;99.90;;;;;;5028861;28;1914;-63
2023/01/29 10:06:48;;;;;;;;;;;3.80;99.90;;;;;;5018104;28;3678;-63
2023/01/29 10:09:17;;;;;;;;;;;4.10;99.90;;;;;;5027521;28;3505;-63
2023/01/29 10:11:49;;;;;;;;;;;4.00;99.90;;;;;;5031376;28;1192;-63
2023/01/29 10:14:21;;;;;;;;;;;4.20;99.90;;;;;;5028189;28;3413;-63
2023/01/29 10:17:09;;;;;;;;;;;4.30;99.90;;;;;;4995461;28;1107;-63
2023/01/29 10:19:45;;;;;;;;;;;4.20;99.90;;;;;;4991662;28;1166;-63
2023/01/29 10:22:19;;;;;;;;;;;4.20;99.90;;;;;;5000431;28;1182;-63
2023/01/29 10:24:51;;;;;;;;;;;4.20;99.90;;;;;;5008407;28;1910;-63
2023/01/29 10:27:17;;;;;;;;;;;4.10;99.90;;;;;;5008359;28;3297;-63
2023/01/29 10:29:44;;;;;;;;;;;4.10;99.90;;;;;;5007408;28;3570;-63
2023/01/29 10:32:14;;;;;;;;;;;4.30;99.90;;;;;;5020006;28;1296;-63
2023/01/29 10:34:41;;;;;;;;;;;4.20;99.90;;;;;;5000761;28;3368;-63
2023/01/29 10:37:15;;;;;;;;;;;4.40;99.90;;;;;;5009010;28;1086;-63
2023/01/29 10:39:40;;;;;;;;;;;4.20;99.90;;;;;;4997419;28;1087;-63
2023/01/29 10:42:15;;;;;;;;;;;4.30;99.90;;;;;;5009226;28;1161;-63
2023/01/29 10:44:41;;;;;;;;;;;4.10;99.90;;;;;;5008626;28;1910;-63
2023/01/29 10:47:10;;;;;;;;;;;4.30;99.90;;;;;;5000455;28;3297;-63
2023/01/29 10:49:36;;;;;;;;;;;4.30;99.90;;;;;;4992222;28;1203;-63
2023/01/29 10:52:08;;;;;;;;;;;4.40;99.90;;;;;;4994195;28;1350;-63
2023/01/29 10:54:46;;;;;;;;;;;4.30;99.90;;;;;;5013137;28;1104;-63
2023/01/29 10:57:17;;;;;;;;;;;4.30;99.90;;;;;;5013137;28;1258;-63
2023/01/29 10:59:50;;;;;;;;;;;4.40;99.90;;;;;;5005263;28;1079;-63
2023/01/29 11:02:18;;;;;;;;;;;4.10;99.90;;;;;;5012740;28;1138;-63
2023/01/29 11:04:44;;;;;;;;;;;4.20;99.90;;;;;;5003250;28;1891;-63
2023/01/29 11:07:11;;;;;;;;;;;4.60;99.90;;;;;;5011986;28;1455;-63
2023/01/29 11:09:41;;;;;;;;;;;4.20;99.90;;;;;;5012776;28;1114;-63
2023/01/29 11:12:13;;;;;;;;;;;4.10;99.90;;;;;;5010989;28;1073;-63
2023/01/29 11:14:52;;;;;;;;;;;4.20;99.90;;;;;;4996357;28;1318;-63
2023/01/29 11:17:19;;;;;;;;;;;4.10;99.90;;;;;;5005263;28;1336;-63
2023/01/29 11:19:46;;;;;;;;;;;4.00;99.90;;;;;;5010338;28;1111;-63
2023/01/29 11:22:13;;;;;;;;;;;4.00;99.90;;;;;;5011153;28;1685;-63
2023/01/29 11:24:39;;;;;;;;;;;4.10;99.90;;;;;;5013611;28;1973;-63
2023/01/29 11:27:13;;;;;;;;;;;4.00;99.90;;;;;;5012097;28;1103;-63
2023/01/29 11:29:41;;;;;;;;;;;4.20;99.90;;;;;;5012309;28;1114;-63
2023/01/29 11:32:12;;;;;;;;;;;4.10;99.90;;;;;;5011732;28;1132;-63
2023/01/29 11:34:56;;;;;;;;;;;4.20;99.90;;;;;;5010990;28;1159;-63
2023/01/29 11:37:22;;;;;;;;;;;4.20;99.90;;;;;;5012024;28;1098;-63
2023/01/29 11:39:49;;;;;;;;;;;4.40;99.90;;;;;;4997918;28;1091;-63
2023/01/29 11:42:19;;;;;;;;;;;4.10;99.90;;;;;;5025135;28;1210;-63
2023/01/29 11:44:44;;;;;;;;;;;4.20;99.90;;;;;;5013839;28;2057;-63
2023/01/29 11:47:10;;;;;;;;;;;4.40;99.90;;;;;;5031854;28;1149;-63
2023/01/29 11:49:36;;;;;;;;;;;4.30;99.90;;;;;;5024706;28;1136;-63
2023/01/29 11:52:03;;;;;;;;;;;4.60;99.90;;;;;;5010407;28;1267;-63
2023/01/29 11:54:33;;;;;;;;;;;4.10;99.90;;;;;;5011364;28;1080;-64
2023/01/29 11:56:59;;;;;;;;;;;4.20;99.90;;;;;;5012020;28;1321;-63
2023/01/29 11:59:25;;;;;;;;;;;4.10;99.90;;;;;;4993447;28;1205;-63
2023/01/29 12:01:50;;;;;;;;;;;4.40;99.90;;;;;;5011192;28;1079;-63
2023/01/29 12:04:19;;;;;;;;;;;4.30;99.90;;;;;;4977889;28;1930;-63
2023/01/29 12:06:47;;;;;;;;;;;4.10;99.90;;;;;;5011145;28;1357;-63
2023/01/29 12:09:16;;;;;;;;;;;4.30;99.90;;;;;;5010754;28;1169;-63
2023/01/29 12:11:41;;;;;;;;;;;4.40;99.90;;;;;;5016316;28;1115;-63
2023/01/29 12:14:22;;;;;;;;;;;4.10;99.90;;;;;;5021322;28;1210;-63
2023/01/29 12:16:53;;;;;;;;;;;4.50;99.90;;;;;;5050755;28;1109;-63
2023/01/29 12:19:28;;;;;;;;;;;4.30;99.90;;;;;;5031085;28;1226;-63
2023/01/29 12:21:58;;;;;;;;;;;4.20;99.90;;;;;;5030943;28;1162;-62
2023/01/29 12:24:29;;;;;;;;;;;4.00;99.90;;;;;;5030282;28;1987;-63
2023/01/29 12:27:18;;;;;;;;;;;4.20;99.90;;;;;;5013021;28;1226;-63
2023/01/29 12:29:48;;;;;;;;;;;4.30;99.90;;;;;;5049155;28;1829;-63
2023/01/29 12:32:25;;;;;;;;;;;4.20;99.90;;;;;;5024670;28;3212;-63
2023/01/29 12:34:54;;;;;;;;;;;4.30;99.90;;;;;;5017608;28;3450;-63
2023/01/29 12:37:22;;;;;;;;;;;4.20;99.90;;;;;;5029361;28;3212;-63
2023/01/29 12:39:50;;;;;;;;;;;4.40;99.90;;;;;;5030876;28;1181;-63
2023/01/29 12:42:16;;;;;;;;;;;4.30;99.90;;;;;;5030878;28;1110;-63
2023/01/29 12:44:45;;;;;;;;;;;4.30;99.90;;;;;;5029103;28;1906;-63
2023/01/29 12:47:17;;;;;;;;;;;4.30;99.90;;;;;;5031214;28;1122;-64
2023/01/29 12:49:46;;;;;;;;;;;4.30;99.90;;;;;;5030705;28;1114;-63
2023/01/29 12:52:17;;;;;;;;;;;4.40;99.90;;;;;;5029855;28;1353;-63
2023/01/29 12:54:54;;;;;;;;;;;4.40;99.90;;;;;;5041233;28;1218;-63
2023/01/29 12:57:22;;;;;;;;;;;4.50;99.90;;;;;;5050621;28;1181;-63
2023/01/29 12:59:53;;;;;;;;;;;4.30;99.90;;;;;;5035658;28;1230;-63
2023/01/29 13:02:25;;;;;;;;;;;4.30;99.90;;;;;;5029870;28;1159;-63
2023/01/29 13:04:54;;;;;;;;;;;4.30;99.90;;;;;;5029508;28;1981;-63
2023/01/29 13:07:24;;;;;;;;;;;4.40;99.90;;;;;;5029952;28;1577;-63
2023/01/29 13:09:53;;;;;;;;;;;4.30;99.90;;;;;;5030289;28;1104;-63
2023/01/29 13:12:20;;;;;;;;;;;4.40;99.90;;;;;;5019585;28;1194;-63
2023/01/29 13:14:56;;;;;;;;;;;4.70;99.90;;;;;;5029753;28;1151;-64
2023/01/29 13:17:23;;;;;;;;;;;4.40;99.90;;;;;;5037365;28;1883;-63
2023/01/29 13:19:50;;;;;;;;;;;4.30;99.90;;;;;;5016769;28;1415;-63
2023/01/29 13:22:22;;;;;;;;;;;4.40;99.90;;;;;;5020585;28;1095;-63
2023/01/29 13:24:47;;;;;;;;;;;4.30;99.90;;;;;;5029336;28;1914;-63
2023/01/29 13:27:18;;;;;;;;;;;4.50;99.90;;;;;;5041811;28;1109;-63
2023/01/29 13:29:44;;;;;;;;;;;4.10;99.90;;;;;;5012224;28;3274;-63
2023/01/29 13:32:10;;;;;;;;;;;4.20;99.90;;;;;;5028174;28;3461;-63
2023/01/29 13:34:42;;;;;;;;;;;4.30;99.90;;;;;;5034007;28;3017;-63
2023/01/29 13:37:10;;;;;;;;;;;4.20;99.90;;;;;;5029367;28;1157;-63
2023/01/29 13:39:43;;;;;;;;;;;4.10;99.90;;;;;;5016759;28;1079;-63
2023/01/29 13:42:14;;;;;;;;;;;4.20;99.90;;;;;;5029161;28;1102;-63
2023/01/29 13:44:40;;;;;;;;;;;4.10;99.90;;;;;;5049283;28;1906;-63
2023/01/29 13:47:09;;;;;;;;;;;4.00;99.90;;;;;;5034363;28;3283;-63
2023/01/29 13:49:43;;;;;;;;;;;4.00;99.90;;;;;;5029486;28;1244;-63
2023/01/29 13:52:19;;;;;;;;;;;4.10;99.90;;;;;;5032965;28;1276;-63
2023/01/29 13:54:52;;;;;;;;;;;4.10;99.90;;;;;;5028238;28;1110;-63
2023/01/29 13:57:32;;;;;;;;;;;4.10;99.90;;;;;;5048189;28;1162;-63
2023/01/29 13:59:57;;;;;;;;;;;4.10;99.90;;;;;;5033899;28;1143;-63
2023/01/29 14:02:26;;;;;;;;;;;4.00;99.90;;;;;;5028357;28;1116;-63
2023/01/29 14:05:11;;;;;;;;;;;4.00;99.90;;;;;;5028175;28;1913;-63
2023/01/29 14:07:47;;;;;;;;;;;4.00;99.90;;;;;;5028864;28;1821;-63
2023/01/29 14:10:20;;;;;;;;;;;3.90;99.90;;;;;;5028472;28;1110;-63
2023/01/29 14:12:47;;;;;;;;;;;4.00;99.90;;;;;;5025874;28;1490;-63
2023/01/29 14:15:15;;;;;;;;;;;4.00;99.90;;;;;;5015151;28;1228;-63
2023/01/29 14:17:53;;;;;;;;;;;4.00;99.90;;;;;;5029375;28;1284;-63
2023/01/29 14:20:22;;;;;;;;;;;4.00;99.90;;;;;;5000210;28;1100;-63
2023/01/29 14:22:56;;;;;;;;;;;3.90;99.90;;;;;;5022965;28;3360;-63
2023/01/29 14:25:26;;;;;;;;;;;4.10;99.90;;;;;;5007545;28;3324;-63
2023/01/29 14:27:52;;;;;;;;;;;3.90;99.90;;;;;;5028643;28;3227;-63
2023/01/29 14:30:18;;;;;;;;;;;4.10;99.90;;;;;;5027730;28;1225;-63
2023/01/29 14:32:46;;;;;;;;;;;4.10;99.90;;;;;;5030130;28;1158;-63
2023/01/29 14:35:21;;;;;;;;;;;3.80;99.90;;;;;;5027714;28;1419;-63
2023/01/29 14:37:49;;;;;;;;;;;3.90;99.90;;;;;;5031061;28;1209;-63
2023/01/29 14:40:19;;;;;;;;;;;3.90;99.90;;;;;;5028014;28;3146;-63
2023/01/29 14:42:55;;;;;;;;;;;3.80;99.90;;;;;;5027829;28;1094;-63
2023/01/29 14:45:21;;;;;;;;;;;4.00;99.90;;;;;;5028175;28;1976;-63
2023/01/29 14:47:46;;;;;;;;;;;4.00;99.90;;;;;;5028258;28;1207;-63
2023/01/29 14:50:27;;;;;;;;;;;3.90;99.90;;;;;;5009645;28;1924;-63
2023/01/29 14:52:58;;;;;;;;;;;3.80;99.90;;;;;;5027274;28;1413;-63
2023/01/29 14:55:27;;;;;;;;;;;3.80;99.90;;;;;;5029545;28;1296;-63
2023/01/29 14:57:55;;;;;;;;;;;3.70;99.90;;;;;;5028886;28;1208;-63
2023/01/29 15:00:25;;;;;;;;;;;3.80;99.90;;;;;;5026943;28;1128;-63
2023/01/29 15:02:51;;;;;;;;;;;3.90;99.90;;;;;;5040184;28;1137;-63
2023/01/29 15:05:20;;;;;;;;;;;3.70;99.90;;;;;;5040426;28;1914;-63
2023/01/29 15:07:46;;;;;;;;;;;3.80;99.90;;;;;;5028671;28;1568;-63
2023/01/29 15:10:18;;;;;;;;;;;4.00;99.90;;;;;;5027679;28;1361;-63
2023/01/29 15:12:48;;;;;;;;;;;3.80;99.90;;;;;;5019791;28;1607;-63
2023/01/29 15:15:17;;;;;;;;;;;3.70;99.90;;;;;;5024687;28;1298;-63
2023/01/29 15:17:52;;;;;;;;;;;3.80;99.90;;;;;;5023075;28;1493;-63
2023/01/29 15:20:29;;;;;;;;;;;3.80;99.90;;;;;;5022542;28;1317;-63
2023/01/29 15:22:55;;;;;;;;;;;3.80;99.90;;;;;;5027619;28;1260;-63